Maldives Meteorological Service

SYNOP

Station Code SYNOP
43555
AAXX 24214 43555 42468 72312 10280 20241 30106 40108 8327/ 333 59006 83818 87361=
43533
AAXX 24214 43533 42470 79902 10263 20244 30108 40110 82242 333 58000 82818 85362=
43577
AAXX 24214 43577 42460 72710 10269 20249 30112 40114 83932 333 59004 82817 81918 87076=
43588
AAXX 24214 43588 42462 52907 10276 20241 30108 40109 82232 333 59009 82818 83077=
43599
AAXX 24214 43599 42460 62708 10270 20232 30107 40109 82232 333 59007 82818 85076=
Last Updated : 2018-09-25 02:03:31